createdAt,value
2019-01-29T00:02:24.611Z,-1.04
2019-01-29T00:05:28.908Z,-1.07
2019-01-29T00:08:33.288Z,-1.11
2019-01-29T00:11:37.564Z,-1.14
2019-01-29T00:14:41.947Z,-1.14
2019-01-29T00:17:46.214Z,-1.15
2019-01-29T00:20:50.489Z,-1.21
2019-01-29T00:23:54.873Z,-1.28
2019-01-29T00:26:59.155Z,-1.34
2019-01-29T00:30:03.477Z,-1.37
2019-01-29T00:33:07.832Z,-1.38
2019-01-29T00:36:12.133Z,-1.36
2019-01-29T00:39:16.497Z,-1.37
2019-01-29T00:42:20.895Z,-1.37
2019-01-29T00:45:25.274Z,-1.37
2019-01-29T00:48:29.561Z,-1.38
2019-01-29T00:51:33.851Z,-1.39
2019-01-29T00:54:38.128Z,-1.39
2019-01-29T00:57:42.625Z,-1.37
2019-01-29T01:00:46.913Z,-1.38
2019-01-29T01:03:51.189Z,-1.38
2019-01-29T01:06:55.487Z,-1.36
2019-01-29T01:09:59.765Z,-1.40
2019-01-29T01:13:04.149Z,-1.51
2019-01-29T01:16:08.535Z,-1.55
2019-01-29T01:19:12.900Z,-1.58
2019-01-29T01:22:17.201Z,-1.64
2019-01-29T01:25:21.478Z,-1.61
2019-01-29T01:28:25.859Z,-1.57
2019-01-29T01:31:30.141Z,-1.60
2019-01-29T01:34:34.402Z,-1.67
2019-01-29T01:37:38.707Z,-1.69
2019-01-29T01:40:43.018Z,-1.68
2019-01-29T01:43:47.306Z,-1.69
2019-01-29T01:46:51.590Z,-1.70
2019-01-29T01:49:56.070Z,-1.77
2019-01-29T01:53:00.382Z,-1.82
2019-01-29T01:56:04.857Z,-1.83
2019-01-29T01:59:09.425Z,-1.78
2019-01-29T02:02:13.793Z,-1.77
2019-01-29T02:05:18.307Z,-1.79
2019-01-29T02:08:22.609Z,-1.80
2019-01-29T02:11:26.890Z,-1.78
2019-01-29T02:14:31.195Z,-1.75
2019-01-29T02:17:35.594Z,-1.78
2019-01-29T02:20:39.882Z,-1.81
2019-01-29T02:23:44.166Z,-1.81
2019-01-29T02:26:48.446Z,-1.80
2019-01-29T02:29:52.739Z,-1.83
2019-01-29T02:32:57.035Z,-1.82
2019-01-29T02:36:03.254Z,-1.76
2019-01-29T02:39:09.640Z,-1.57
2019-01-29T02:42:13.946Z,-1.49
2019-01-29T02:45:22.451Z,-1.43
2019-01-29T02:48:26.740Z,-1.33
2019-01-29T02:51:31.029Z,-1.24
2019-01-29T02:54:35.300Z,-1.24
2019-01-29T02:57:42.098Z,-1.26
2019-01-29T03:00:46.373Z,-1.26
2019-01-29T03:03:50.648Z,-1.27
2019-01-29T03:06:55.152Z,-1.29
2019-01-29T03:09:59.456Z,-1.27
2019-01-29T03:13:03.774Z,-1.28
2019-01-29T03:16:08.043Z,-1.29
2019-01-29T03:19:12.470Z,-1.29
2019-01-29T03:22:16.758Z,-1.18
2019-01-29T03:25:21.045Z,-1.17
2019-01-29T03:28:25.338Z,-1.16
2019-01-29T03:31:29.633Z,-1.16
2019-01-29T03:34:33.922Z,-1.11
2019-01-29T03:37:38.358Z,-1.08
2019-01-29T03:40:42.680Z,-1.02
2019-01-29T03:43:47.151Z,-0.98
2019-01-29T03:46:53.515Z,-0.91
2019-01-29T03:49:57.927Z,-0.91
2019-01-29T03:53:02.186Z,-0.89
2019-01-29T03:56:06.702Z,-0.87
2019-01-29T03:59:11.008Z,-0.82
2019-01-29T04:02:15.315Z,-0.78
2019-01-29T04:05:21.246Z,-0.74
2019-01-29T04:08:25.539Z,-0.61
2019-01-29T04:11:32.822Z,-0.64
2019-01-29T04:14:37.135Z,-0.69
2019-01-29T04:17:42.148Z,-0.78
2019-01-29T04:20:46.571Z,-0.84
2019-01-29T04:23:50.883Z,-0.82
2019-01-29T04:26:55.246Z,-0.82
2019-01-29T04:30:02.630Z,-0.88
2019-01-29T04:33:06.926Z,-0.88
2019-01-29T04:36:11.326Z,-0.88
2019-01-29T04:39:15.649Z,-0.87
2019-01-29T04:42:19.953Z,-0.84
2019-01-29T04:45:24.241Z,-0.85
2019-01-29T04:48:28.640Z,-0.85
2019-01-29T04:51:32.934Z,-0.80
2019-01-29T04:54:39.046Z,-0.75
2019-01-29T04:57:48.475Z,-0.59
2019-01-29T05:00:52.796Z,-0.67
2019-01-29T05:03:58.966Z,-0.73
2019-01-29T05:07:03.271Z,-0.73
2019-01-29T05:10:09.215Z,-0.70
2019-01-29T05:13:16.007Z,-0.56
2019-01-29T05:16:25.844Z,-0.60
2019-01-29T05:19:30.180Z,-0.66
2019-01-29T05:22:34.616Z,-0.69
2019-01-29T05:25:39.052Z,-0.70
2019-01-29T05:28:43.363Z,-0.74
2019-01-29T05:31:50.140Z,-0.66
2019-01-29T05:34:54.659Z,-0.60
2019-01-29T05:37:59.353Z,-0.51
2019-01-29T05:41:03.688Z,-0.43
2019-01-29T05:44:07.978Z,-0.43
2019-01-29T05:47:12.431Z,-0.50
2019-01-29T05:50:16.928Z,-0.46
2019-01-29T05:53:21.411Z,-0.40
2019-01-29T05:56:25.789Z,-0.41
2019-01-29T05:59:30.080Z,-0.33
2019-01-29T06:02:34.400Z,-0.36
2019-01-29T06:05:38.711Z,-0.28
2019-01-29T06:08:43.117Z,-0.21
2019-01-29T06:11:49.343Z,-0.14
2019-01-29T06:14:53.745Z,-0.14
2019-01-29T06:17:58.035Z,-0.14
2019-01-29T06:21:02.323Z,-0.11
2019-01-29T06:24:06.740Z,-0.11
2019-01-29T06:27:11.010Z,0.00
2019-01-29T06:30:16.829Z,0.08
2019-01-29T06:33:21.680Z,0.10
2019-01-29T06:36:26.217Z,0.14
2019-01-29T06:39:30.502Z,0.14
2019-01-29T06:42:34.787Z,0.17
2019-01-29T06:45:39.194Z,0.24
2019-01-29T06:48:43.571Z,0.24
2019-01-29T06:51:47.845Z,0.27
2019-01-29T06:54:52.116Z,0.31
2019-01-29T06:57:56.401Z,0.37
2019-01-29T07:01:02.005Z,0.38
2019-01-29T07:04:06.379Z,0.40
2019-01-29T07:07:14.212Z,0.51
2019-01-29T07:10:19.440Z,0.58
2019-01-29T07:13:26.069Z,0.67
2019-01-29T07:16:38.375Z,0.77
2019-01-29T07:19:45.642Z,0.85
2019-01-29T07:22:53.018Z,0.91
2019-01-29T07:25:57.308Z,0.99
2019-01-29T07:29:03.096Z,1.04
2019-01-29T07:32:11.021Z,1.07
2019-01-29T07:35:15.519Z,1.07
2019-01-29T07:38:20.239Z,1.15
2019-01-29T07:41:24.535Z,1.23
2019-01-29T07:44:28.830Z,1.24
2019-01-29T07:47:33.202Z,1.06
2019-01-29T07:50:37.507Z,0.90
2019-01-29T07:53:41.809Z,0.84
2019-01-29T07:56:46.119Z,0.97
2019-01-29T07:59:50.468Z,0.87
2019-01-29T08:02:54.771Z,0.91
2019-01-29T08:05:59.073Z,0.95
2019-01-29T08:09:05.567Z,0.87
2019-01-29T08:12:11.175Z,0.84
2019-01-29T08:15:16.040Z,0.83
2019-01-29T08:18:20.700Z,0.85
2019-01-29T08:21:25.093Z,0.85
2019-01-29T08:24:29.495Z,0.87
2019-01-29T08:27:34.450Z,0.94
2019-01-29T08:30:38.726Z,1.07
2019-01-29T08:33:43.010Z,1.10
2019-01-29T08:36:48.358Z,1.08
2019-01-29T08:39:52.668Z,1.07
2019-01-29T08:42:59.489Z,1.02
2019-01-29T08:46:03.962Z,1.05
2019-01-29T08:49:08.267Z,1.10
2019-01-29T08:52:12.538Z,1.14
2019-01-29T08:55:18.781Z,1.15
2019-01-29T08:58:27.219Z,1.14
2019-01-29T09:01:29.116Z,1.08
2019-01-29T09:04:33.744Z,1.27
2019-01-29T09:07:38.026Z,1.44
2019-01-29T09:10:42.314Z,1.53
2019-01-29T09:13:46.722Z,1.59
2019-01-29T09:16:51.080Z,1.70
2019-01-29T09:19:55.387Z,1.77
2019-01-29T09:22:59.795Z,1.92
2019-01-29T09:26:04.182Z,1.90
2019-01-29T09:29:08.464Z,1.98
2019-01-29T09:32:12.848Z,2.05
2019-01-29T09:35:17.343Z,2.11
2019-01-29T09:38:21.654Z,2.08
2019-01-29T09:41:29.790Z,2.12
2019-01-29T09:44:34.150Z,2.22
2019-01-29T09:47:38.431Z,2.27
2019-01-29T09:50:42.771Z,2.28
2019-01-29T09:53:47.147Z,2.36
2019-01-29T09:56:51.451Z,2.37
2019-01-29T09:59:55.833Z,2.39
2019-01-29T10:03:00.239Z,2.45
2019-01-29T10:06:05.025Z,2.52
2019-01-29T10:09:09.742Z,2.63
2019-01-29T10:12:14.132Z,2.55
2019-01-29T10:15:24.804Z,2.52
2019-01-29T10:18:29.971Z,2.46
2019-01-29T10:21:34.339Z,2.55
2019-01-29T10:24:38.773Z,2.62
2019-01-29T10:27:43.043Z,2.71
2019-01-29T10:30:47.393Z,2.76
2019-01-29T10:33:51.698Z,2.91
2019-01-29T10:36:56.005Z,3.10
2019-01-29T10:40:00.397Z,3.14
2019-01-29T10:43:04.877Z,3.08
2019-01-29T10:46:09.257Z,3.07
2019-01-29T10:49:13.634Z,3.01
2019-01-29T10:52:17.933Z,3.03
2019-01-29T10:55:22.447Z,2.57
2019-01-29T10:58:28.495Z,2.48
2019-01-29T11:01:32.895Z,2.50
2019-01-29T11:04:37.280Z,2.72
2019-01-29T11:07:41.822Z,2.98
2019-01-29T11:10:46.085Z,3.18
2019-01-29T11:13:50.484Z,3.18
2019-01-29T11:16:54.771Z,3.37
2019-01-29T11:19:59.057Z,3.36
2019-01-29T11:23:03.422Z,3.32
2019-01-29T11:26:08.183Z,3.29
2019-01-29T11:29:12.605Z,3.43
2019-01-29T11:32:16.973Z,3.41
2019-01-29T11:35:21.292Z,3.34
2019-01-29T11:38:25.603Z,3.38
2019-01-29T11:41:29.884Z,3.24
2019-01-29T11:44:34.240Z,3.17
2019-01-29T11:47:38.653Z,3.11
2019-01-29T11:50:42.936Z,3.11
2019-01-29T11:53:47.229Z,3.07
2019-01-29T11:56:51.503Z,3.05
2019-01-29T11:59:55.796Z,3.13
2019-01-29T12:03:00.490Z,3.22
2019-01-29T12:06:07.289Z,3.24
2019-01-29T12:09:11.608Z,3.28
2019-01-29T12:12:15.910Z,3.43
2019-01-29T12:15:20.393Z,3.45
2019-01-29T12:18:24.790Z,3.45
2019-01-29T12:21:31.377Z,3.41
2019-01-29T12:24:35.688Z,3.40
2019-01-29T12:27:40.021Z,3.54
2019-01-29T12:30:44.316Z,3.58
2019-01-29T12:33:48.617Z,3.44
2019-01-29T12:36:52.889Z,3.39
2019-01-29T12:39:57.268Z,3.47
2019-01-29T12:43:01.560Z,3.40
2019-01-29T12:46:07.849Z,3.40
2019-01-29T12:49:12.147Z,3.39
2019-01-29T12:52:28.389Z,3.51
2019-01-29T12:55:32.659Z,3.47
2019-01-29T12:58:36.967Z,3.51
2019-01-29T13:01:41.361Z,3.65
2019-01-29T13:04:45.649Z,3.69
2019-01-29T13:07:52.314Z,3.64
2019-01-29T13:10:56.582Z,3.55
2019-01-29T13:14:07.260Z,3.57
2019-01-29T13:17:11.553Z,3.57
2019-01-29T13:20:15.927Z,3.51
2019-01-29T13:23:20.290Z,3.53
2019-01-29T13:26:29.932Z,3.55
2019-01-29T13:29:30.714Z,3.74
2019-01-29T13:32:34.978Z,3.75
2019-01-29T13:35:39.719Z,3.86
2019-01-29T13:38:44.010Z,3.86
2019-01-29T13:41:51.610Z,3.88
2019-01-29T13:44:55.935Z,3.75
2019-01-29T13:48:00.228Z,3.79
2019-01-29T13:51:04.810Z,3.76
2019-01-29T13:54:09.091Z,3.61
2019-01-29T13:57:13.584Z,3.75
2019-01-29T14:00:26.534Z,3.58
2019-01-29T14:03:30.816Z,3.63
2019-01-29T14:06:35.078Z,3.59
2019-01-29T14:09:39.458Z,3.63
2019-01-29T14:12:43.831Z,3.67
2019-01-29T14:15:50.971Z,3.57
2019-01-29T14:18:55.243Z,3.65
2019-01-29T14:22:01.074Z,3.68
2019-01-29T14:25:06.086Z,3.55
2019-01-29T14:28:10.369Z,3.57
2019-01-29T14:31:14.652Z,3.65
2019-01-29T14:34:19.041Z,3.54
2019-01-29T14:37:23.326Z,3.60
2019-01-29T14:40:27.707Z,3.59
2019-01-29T14:43:33.057Z,3.51
2019-01-29T14:46:37.336Z,3.45
2019-01-29T14:49:41.633Z,3.30
2019-01-29T14:52:48.331Z,3.25
2019-01-29T14:55:52.640Z,3.16
2019-01-29T14:58:56.930Z,3.16
2019-01-29T15:02:01.225Z,3.17
2019-01-29T15:05:06.208Z,3.11
2019-01-29T15:08:10.699Z,3.16
2019-01-29T15:11:14.984Z,3.18
2019-01-29T15:14:22.341Z,3.04
2019-01-29T15:17:51.548Z,2.98
2019-01-29T15:20:57.919Z,2.85
2019-01-29T15:24:02.517Z,2.77
2019-01-29T15:27:07.303Z,2.74
2019-01-29T15:30:16.585Z,2.66
2019-01-29T15:33:41.946Z,2.61
2019-01-29T15:36:47.586Z,2.69
2019-01-29T15:39:52.674Z,2.59
2019-01-29T15:42:58.131Z,2.50
2019-01-29T15:46:02.677Z,2.40
2019-01-29T15:49:08.205Z,2.29
2019-01-29T15:52:12.527Z,2.20
2019-01-29T15:55:17.739Z,2.21
2019-01-29T15:58:26.742Z,2.14
2019-01-29T16:01:31.308Z,2.11
2019-01-29T16:04:35.592Z,2.06
2019-01-29T16:07:40.237Z,2.08
2019-01-29T16:10:45.118Z,2.00
2019-01-29T16:13:49.516Z,1.90
2019-01-29T16:16:54.191Z,1.93
2019-01-29T16:19:58.861Z,1.97
2019-01-29T16:23:03.220Z,1.87
2019-01-29T16:26:08.269Z,1.74
2019-01-29T16:29:14.660Z,1.88
2019-01-29T16:32:19.034Z,1.79
2019-01-29T16:35:26.698Z,1.73
2019-01-29T16:38:31.100Z,1.66
2019-01-29T16:41:35.413Z,1.68
2019-01-29T16:44:39.808Z,1.59
2019-01-29T16:47:44.188Z,1.53
2019-01-29T16:50:48.549Z,1.63
2019-01-29T16:53:52.849Z,1.68
2019-01-29T16:56:57.316Z,1.98
2019-01-29T17:00:01.842Z,1.94
2019-01-29T17:03:06.442Z,1.94
2019-01-29T17:06:11.112Z,1.90
2019-01-29T17:09:15.991Z,1.89
2019-01-29T17:12:20.378Z,1.92
2019-01-29T17:15:26.590Z,1.98
2019-01-29T17:18:30.988Z,1.94
2019-01-29T17:21:35.384Z,2.01
2019-01-29T17:24:39.685Z,2.03
2019-01-29T17:27:44.098Z,1.90
2019-01-29T17:30:48.488Z,1.80
2019-01-29T17:33:52.814Z,1.95
2019-01-29T17:36:57.141Z,1.91
2019-01-29T17:40:01.437Z,2.02
2019-01-29T17:43:06.567Z,1.99
2019-01-29T17:46:10.876Z,1.94
2019-01-29T17:49:15.209Z,1.90
2019-01-29T17:52:19.494Z,2.07
2019-01-29T17:55:25.303Z,2.13
2019-01-29T17:58:29.619Z,2.10
2019-01-29T18:01:33.921Z,2.19
2019-01-29T18:04:38.509Z,2.14
2019-01-29T18:07:43.033Z,2.02
2019-01-29T18:10:47.337Z,2.11
2019-01-29T18:13:51.772Z,2.13
2019-01-29T18:16:56.211Z,2.22
2019-01-29T18:20:00.582Z,2.16
2019-01-29T18:23:05.943Z,2.04
2019-01-29T18:26:10.347Z,1.88
2019-01-29T18:29:14.740Z,1.99
2019-01-29T18:32:19.040Z,2.02
2019-01-29T18:35:23.663Z,1.88
2019-01-29T18:38:27.949Z,1.90
2019-01-29T18:41:32.251Z,1.87
2019-01-29T18:44:36.705Z,1.91
2019-01-29T18:47:41.003Z,1.94
2019-01-29T18:50:45.483Z,1.91
2019-01-29T18:53:49.787Z,1.97
2019-01-29T18:56:54.068Z,2.06
2019-01-29T18:59:58.376Z,1.91
2019-01-29T19:03:02.783Z,1.95
2019-01-29T19:06:08.554Z,1.96
2019-01-29T19:09:12.864Z,1.91
2019-01-29T19:12:19.575Z,1.90
2019-01-29T19:15:24.960Z,1.88
2019-01-29T19:18:29.419Z,1.92
2019-01-29T19:21:33.736Z,1.99
2019-01-29T19:24:38.137Z,1.97
2019-01-29T19:27:42.681Z,1.89
2019-01-29T19:30:46.974Z,1.89
2019-01-29T19:33:51.670Z,1.94
2019-01-29T19:36:55.974Z,1.91
2019-01-29T19:40:00.320Z,1.84
2019-01-29T19:43:04.865Z,2.03
2019-01-29T19:46:09.287Z,1.98
2019-01-29T19:49:13.639Z,2.03
2019-01-29T19:52:18.040Z,2.05
2019-01-29T19:55:23.813Z,2.12
2019-01-29T19:58:32.451Z,2.11
2019-01-29T20:01:36.904Z,2.03
2019-01-29T20:04:41.283Z,1.96
2019-01-29T20:07:45.600Z,2.05
2019-01-29T20:10:49.943Z,2.17
2019-01-29T20:13:54.380Z,2.11
2019-01-29T20:16:58.764Z,2.05
2019-01-29T20:20:03.208Z,2.11
2019-01-29T20:23:08.529Z,2.07
2019-01-29T20:26:13.055Z,2.05
2019-01-29T20:29:17.482Z,2.01
2019-01-29T20:32:21.843Z,2.11
2019-01-29T20:35:26.331Z,1.99
2019-01-29T20:38:35.026Z,2.08
2019-01-29T20:41:36.953Z,2.09
2019-01-29T20:44:41.319Z,2.24
2019-01-29T20:47:45.726Z,2.17
2019-01-29T20:50:50.065Z,2.05
2019-01-29T20:53:54.579Z,1.97
2019-01-29T20:56:58.916Z,2.05
2019-01-29T21:00:07.081Z,2.04
2019-01-29T21:03:11.376Z,2.11
2019-01-29T21:06:15.781Z,2.08
2019-01-29T21:09:20.609Z,2.05
2019-01-29T21:12:26.709Z,1.98
2019-01-29T21:15:37.927Z,2.03
2019-01-29T21:18:37.172Z,1.93
2019-01-29T21:21:43.738Z,1.91
2019-01-29T21:24:50.879Z,2.03
2019-01-29T21:27:55.143Z,2.04
2019-01-29T21:30:59.433Z,1.90
2019-01-29T21:34:03.744Z,1.91
2019-01-29T21:37:08.190Z,1.83
2019-01-29T21:40:12.945Z,1.94
2019-01-29T21:43:17.267Z,1.97
2019-01-29T21:46:21.693Z,2.02
2019-01-29T21:49:25.987Z,2.03
2019-01-29T21:52:30.467Z,2.03
2019-01-29T21:55:34.789Z,1.92
2019-01-29T21:58:39.094Z,2.06
2019-01-29T22:01:43.401Z,1.98
2019-01-29T22:04:48.068Z,1.85
2019-01-29T22:07:54.546Z,1.83
2019-01-29T22:10:58.847Z,1.89
2019-01-29T22:14:03.164Z,1.80
2019-01-29T22:17:07.548Z,1.90
2019-01-29T22:20:19.090Z,1.71
2019-01-29T22:23:23.374Z,1.56
2019-01-29T22:26:27.657Z,1.37
2019-01-29T22:29:32.045Z,1.23
2019-01-29T22:32:36.342Z,1.13
2019-01-29T22:35:40.642Z,1.06
2019-01-29T22:38:44.931Z,1.05
2019-01-29T22:41:49.212Z,1.01
2019-01-29T22:44:53.590Z,0.85
2019-01-29T22:48:04.403Z,0.90
2019-01-29T22:51:06.281Z,0.78
2019-01-29T22:54:12.364Z,0.77
2019-01-29T22:57:18.814Z,0.70
2019-01-29T23:00:48.141Z,0.62
2019-01-29T23:04:04.863Z,0.61
2019-01-29T23:07:38.891Z,0.60
2019-01-29T23:10:46.529Z,0.57
2019-01-29T23:13:50.895Z,0.40
2019-01-29T23:16:55.757Z,0.36
2019-01-29T23:20:00.046Z,0.30
2019-01-29T23:23:04.331Z,0.28
2019-01-29T23:26:08.628Z,0.23
2019-01-29T23:29:12.909Z,0.21
2019-01-29T23:32:17.202Z,0.21
2019-01-29T23:35:21.498Z,0.28
2019-01-29T23:38:27.386Z,0.17
2019-01-29T23:41:31.674Z,0.11
2019-01-29T23:44:36.875Z,0.03
2019-01-29T23:47:41.422Z,0.04
2019-01-29T23:50:45.997Z,0.15
2019-01-29T23:53:50.496Z,0.26
2019-01-29T23:56:54.782Z,0.20
2019-01-29T23:59:59.526Z,0.09
